sensor_id;sensor_type;location;lat;lon;timestamp;P1;durP1;ratioP1;P2;durP2;ratioP2
21624;SDS011;10974;51.034;3.744;2024-01-11T00:00:42;15.60;;;8.40;;
21624;SDS011;10974;51.034;3.744;2024-01-11T00:03:08;16.40;;;9.10;;
21624;SDS011;10974;51.034;3.744;2024-01-11T00:05:36;15.70;;;8.20;;
21624;SDS011;10974;51.034;3.744;2024-01-11T00:08:02;14.50;;;8.67;;
21624;SDS011;10974;51.034;3.744;2024-01-11T00:10:28;17.03;;;8.77;;
21624;SDS011;10974;51.034;3.744;2024-01-11T00:12:54;15.70;;;9.23;;
21624;SDS011;10974;51.034;3.744;2024-01-11T00:15:20;15.07;;;8.50;;
21624;SDS011;10974;51.034;3.744;2024-01-11T00:17:46;16.70;;;8.57;;
21624;SDS011;10974;51.034;3.744;2024-01-11T00:20:12;15.93;;;8.47;;
21624;SDS011;10974;51.034;3.744;2024-01-11T00:22:38;20.83;;;9.10;;
21624;SDS011;10974;51.034;3.744;2024-01-11T00:25:04;13.50;;;7.93;;
21624;SDS011;10974;51.034;3.744;2024-01-11T00:27:31;18.50;;;8.10;;
21624;SDS011;10974;51.034;3.744;2024-01-11T00:29:57;17.27;;;8.70;;
21624;SDS011;10974;51.034;3.744;2024-01-11T00:32:23;14.67;;;8.53;;
21624;SDS011;10974;51.034;3.744;2024-01-11T00:34:49;15.87;;;8.90;;
21624;SDS011;10974;51.034;3.744;2024-01-11T00:37:16;12.30;;;8.23;;
21624;SDS011;10974;51.034;3.744;2024-01-11T00:39:42;16.33;;;8.70;;
21624;SDS011;10974;51.034;3.744;2024-01-11T00:42:08;15.07;;;8.33;;
21624;SDS011;10974;51.034;3.744;2024-01-11T00:44:34;16.40;;;8.30;;
21624;SDS011;10974;51.034;3.744;2024-01-11T00:47:01;17.50;;;8.90;;
21624;SDS011;10974;51.034;3.744;2024-01-11T00:49:27;16.90;;;8.40;;
21624;SDS011;10974;51.034;3.744;2024-01-11T00:51:53;14.37;;;8.37;;
21624;SDS011;10974;51.034;3.744;2024-01-11T00:54:19;13.77;;;8.03;;
21624;SDS011;10974;51.034;3.744;2024-01-11T00:56:45;15.87;;;8.43;;
21624;SDS011;10974;51.034;3.744;2024-01-11T00:59:11;15.00;;;8.77;;
21624;SDS011;10974;51.034;3.744;2024-01-11T01:01:37;20.40;;;9.37;;
21624;SDS011;10974;51.034;3.744;2024-01-11T01:04:03;17.20;;;7.93;;
21624;SDS011;10974;51.034;3.744;2024-01-11T01:06:29;13.57;;;7.93;;
21624;SDS011;10974;51.034;3.744;2024-01-11T01:08:55;18.13;;;8.23;;
21624;SDS011;10974;51.034;3.744;2024-01-11T01:11:21;15.57;;;8.67;;
21624;SDS011;10974;51.034;3.744;2024-01-11T01:13:47;13.13;;;7.90;;
21624;SDS011;10974;51.034;3.744;2024-01-11T01:16:13;15.73;;;8.83;;
21624;SDS011;10974;51.034;3.744;2024-01-11T01:18:40;11.73;;;7.33;;
21624;SDS011;10974;51.034;3.744;2024-01-11T01:21:06;17.43;;;8.90;;
21624;SDS011;10974;51.034;3.744;2024-01-11T01:23:32;14.23;;;7.73;;
21624;SDS011;10974;51.034;3.744;2024-01-11T01:25:58;13.60;;;8.30;;
21624;SDS011;10974;51.034;3.744;2024-01-11T01:28:24;19.37;;;8.67;;
21624;SDS011;10974;51.034;3.744;2024-01-11T01:30:50;14.13;;;8.50;;
21624;SDS011;10974;51.034;3.744;2024-01-11T01:33:16;17.80;;;8.80;;
21624;SDS011;10974;51.034;3.744;2024-01-11T01:35:42;18.87;;;9.30;;
21624;SDS011;10974;51.034;3.744;2024-01-11T01:38:08;14.48;;;8.30;;
21624;SDS011;10974;51.034;3.744;2024-01-11T01:40:34;15.60;;;8.70;;
21624;SDS011;10974;51.034;3.744;2024-01-11T01:43:00;16.30;;;8.30;;
21624;SDS011;10974;51.034;3.744;2024-01-11T01:45:26;14.70;;;8.90;;
21624;SDS011;10974;51.034;3.744;2024-01-11T01:47:52;13.43;;;8.30;;
21624;SDS011;10974;51.034;3.744;2024-01-11T01:50:20;15.63;;;8.87;;
21624;SDS011;10974;51.034;3.744;2024-01-11T01:52:46;14.23;;;8.20;;
21624;SDS011;10974;51.034;3.744;2024-01-11T01:55:12;12.80;;;8.07;;
21624;SDS011;10974;51.034;3.744;2024-01-11T01:57:41;13.60;;;8.67;;
21624;SDS011;10974;51.034;3.744;2024-01-11T02:00:08;18.43;;;8.80;;
21624;SDS011;10974;51.034;3.744;2024-01-11T02:02:35;13.97;;;9.00;;
21624;SDS011;10974;51.034;3.744;2024-01-11T02:05:01;14.10;;;8.63;;
21624;SDS011;10974;51.034;3.744;2024-01-11T02:07:27;12.63;;;8.00;;
21624;SDS011;10974;51.034;3.744;2024-01-11T02:09:53;14.53;;;8.57;;
21624;SDS011;10974;51.034;3.744;2024-01-11T02:12:20;13.90;;;7.60;;
21624;SDS011;10974;51.034;3.744;2024-01-11T02:14:46;18.80;;;8.80;;
21624;SDS011;10974;51.034;3.744;2024-01-11T02:17:12;12.83;;;8.07;;
21624;SDS011;10974;51.034;3.744;2024-01-11T02:19:38;14.60;;;7.77;;
21624;SDS011;10974;51.034;3.744;2024-01-11T02:22:15;14.93;;;8.70;;
21624;SDS011;10974;51.034;3.744;2024-01-11T02:24:43;11.93;;;7.37;;
21624;SDS011;10974;51.034;3.744;2024-01-11T02:27:09;13.57;;;8.07;;
21624;SDS011;10974;51.034;3.744;2024-01-11T02:29:35;12.50;;;7.50;;
21624;SDS011;10974;51.034;3.744;2024-01-11T02:32:02;14.63;;;8.17;;
21624;SDS011;10974;51.034;3.744;2024-01-11T02:34:29;14.63;;;8.17;;
21624;SDS011;10974;51.034;3.744;2024-01-11T02:36:56;15.87;;;8.20;;
21624;SDS011;10974;51.034;3.744;2024-01-11T02:39:22;13.17;;;7.90;;
21624;SDS011;10974;51.034;3.744;2024-01-11T02:41:52;14.63;;;7.93;;
21624;SDS011;10974;51.034;3.744;2024-01-11T02:44:19;11.50;;;8.00;;
21624;SDS011;10974;51.034;3.744;2024-01-11T02:46:45;17.00;;;7.57;;
21624;SDS011;10974;51.034;3.744;2024-01-11T02:49:11;13.60;;;7.93;;
21624;SDS011;10974;51.034;3.744;2024-01-11T02:51:37;15.60;;;7.80;;
21624;SDS011;10974;51.034;3.744;2024-01-11T02:54:03;17.50;;;7.73;;
21624;SDS011;10974;51.034;3.744;2024-01-11T02:56:29;12.60;;;7.67;;
21624;SDS011;10974;51.034;3.744;2024-01-11T02:58:55;16.27;;;8.13;;
21624;SDS011;10974;51.034;3.744;2024-01-11T03:01:21;16.33;;;8.20;;
21624;SDS011;10974;51.034;3.744;2024-01-11T03:03:47;15.80;;;8.10;;
21624;SDS011;10974;51.034;3.744;2024-01-11T03:06:13;12.77;;;7.87;;
21624;SDS011;10974;51.034;3.744;2024-01-11T03:08:39;18.10;;;8.10;;
21624;SDS011;10974;51.034;3.744;2024-01-11T03:11:05;15.50;;;7.73;;
21624;SDS011;10974;51.034;3.744;2024-01-11T03:13:31;15.87;;;8.03;;
21624;SDS011;10974;51.034;3.744;2024-01-11T03:15:57;14.33;;;8.20;;
21624;SDS011;10974;51.034;3.744;2024-01-11T03:18:23;15.93;;;8.40;;
21624;SDS011;10974;51.034;3.744;2024-01-11T03:20:50;16.83;;;8.50;;
21624;SDS011;10974;51.034;3.744;2024-01-11T03:23:16;16.73;;;7.90;;
21624;SDS011;10974;51.034;3.744;2024-01-11T03:25:42;13.70;;;8.15;;
21624;SDS011;10974;51.034;3.744;2024-01-11T03:28:08;12.40;;;7.43;;
21624;SDS011;10974;51.034;3.744;2024-01-11T03:30:34;14.50;;;8.40;;
21624;SDS011;10974;51.034;3.744;2024-01-11T03:33:00;14.10;;;8.00;;
21624;SDS011;10974;51.034;3.744;2024-01-11T03:35:26;14.00;;;8.00;;
21624;SDS011;10974;51.034;3.744;2024-01-11T03:37:52;11.33;;;7.60;;
21624;SDS011;10974;51.034;3.744;2024-01-11T03:40:18;13.70;;;8.33;;
21624;SDS011;10974;51.034;3.744;2024-01-11T03:42:44;12.20;;;7.50;;
21624;SDS011;10974;51.034;3.744;2024-01-11T03:45:10;12.50;;;7.30;;
21624;SDS011;10974;51.034;3.744;2024-01-11T03:47:36;16.53;;;9.23;;
21624;SDS011;10974;51.034;3.744;2024-01-11T03:50:02;17.40;;;8.10;;
21624;SDS011;10974;51.034;3.744;2024-01-11T03:52:29;17.73;;;8.70;;
21624;SDS011;10974;51.034;3.744;2024-01-11T03:54:55;14.40;;;8.07;;
21624;SDS011;10974;51.034;3.744;2024-01-11T03:57:21;14.13;;;8.30;;
21624;SDS011;10974;51.034;3.744;2024-01-11T03:59:47;17.43;;;8.43;;
21624;SDS011;10974;51.034;3.744;2024-01-11T04:02:13;16.37;;;8.77;;
21624;SDS011;10974;51.034;3.744;2024-01-11T04:04:40;15.10;;;8.40;;
21624;SDS011;10974;51.034;3.744;2024-01-11T04:07:06;14.30;;;8.37;;
21624;SDS011;10974;51.034;3.744;2024-01-11T04:09:32;12.23;;;7.30;;
21624;SDS011;10974;51.034;3.744;2024-01-11T04:11:58;12.47;;;8.00;;
21624;SDS011;10974;51.034;3.744;2024-01-11T04:14:24;14.27;;;8.20;;
21624;SDS011;10974;51.034;3.744;2024-01-11T04:16:50;10.70;;;7.13;;
21624;SDS011;10974;51.034;3.744;2024-01-11T04:19:16;15.50;;;8.43;;
21624;SDS011;10974;51.034;3.744;2024-01-11T04:21:42;13.90;;;8.70;;
21624;SDS011;10974;51.034;3.744;2024-01-11T04:24:09;13.30;;;7.77;;
21624;SDS011;10974;51.034;3.744;2024-01-11T04:26:35;12.40;;;7.60;;
21624;SDS011;10974;51.034;3.744;2024-01-11T04:29:01;14.60;;;8.40;;
21624;SDS011;10974;51.034;3.744;2024-01-11T04:31:27;13.37;;;8.23;;
21624;SDS011;10974;51.034;3.744;2024-01-11T04:33:53;15.13;;;8.60;;
21624;SDS011;10974;51.034;3.744;2024-01-11T04:36:19;12.67;;;8.00;;
21624;SDS011;10974;51.034;3.744;2024-01-11T04:38:45;14.77;;;8.47;;
21624;SDS011;10974;51.034;3.744;2024-01-11T04:41:12;17.17;;;8.07;;
21624;SDS011;10974;51.034;3.744;2024-01-11T04:43:38;16.27;;;9.60;;
21624;SDS011;10974;51.034;3.744;2024-01-11T04:46:21;15.47;;;8.33;;
21624;SDS011;10974;51.034;3.744;2024-01-11T04:48:47;16.97;;;9.03;;
21624;SDS011;10974;51.034;3.744;2024-01-11T04:51:14;15.67;;;9.10;;
21624;SDS011;10974;51.034;3.744;2024-01-11T04:53:41;14.07;;;8.77;;
21624;SDS011;10974;51.034;3.744;2024-01-11T04:56:07;15.33;;;8.40;;
21624;SDS011;10974;51.034;3.744;2024-01-11T04:58:34;24.00;;;9.10;;
21624;SDS011;10974;51.034;3.744;2024-01-11T05:01:00;21.57;;;10.00;;
21624;SDS011;10974;51.034;3.744;2024-01-11T05:03:27;16.60;;;8.97;;
21624;SDS011;10974;51.034;3.744;2024-01-11T05:05:54;17.73;;;8.50;;
21624;SDS011;10974;51.034;3.744;2024-01-11T05:08:20;15.40;;;8.30;;
21624;SDS011;10974;51.034;3.744;2024-01-11T05:10:46;13.83;;;8.63;;
21624;SDS011;10974;51.034;3.744;2024-01-11T05:13:12;14.40;;;9.20;;
21624;SDS011;10974;51.034;3.744;2024-01-11T05:15:38;14.53;;;9.00;;
21624;SDS011;10974;51.034;3.744;2024-01-11T05:18:04;16.77;;;9.27;;
21624;SDS011;10974;51.034;3.744;2024-01-11T05:20:30;17.87;;;9.60;;
21624;SDS011;10974;51.034;3.744;2024-01-11T05:22:56;19.00;;;9.37;;
21624;SDS011;10974;51.034;3.744;2024-01-11T05:25:22;15.70;;;8.83;;
21624;SDS011;10974;51.034;3.744;2024-01-11T05:27:48;16.53;;;8.37;;
21624;SDS011;10974;51.034;3.744;2024-01-11T05:30:14;15.27;;;9.20;;
21624;SDS011;10974;51.034;3.744;2024-01-11T05:32:40;19.20;;;9.20;;
21624;SDS011;10974;51.034;3.744;2024-01-11T05:35:06;18.73;;;9.70;;
21624;SDS011;10974;51.034;3.744;2024-01-11T05:37:32;13.87;;;9.10;;
21624;SDS011;10974;51.034;3.744;2024-01-11T05:39:58;14.97;;;8.50;;
21624;SDS011;10974;51.034;3.744;2024-01-11T05:42:24;14.83;;;8.40;;
21624;SDS011;10974;51.034;3.744;2024-01-11T05:44:51;14.73;;;8.40;;
21624;SDS011;10974;51.034;3.744;2024-01-11T05:47:17;16.83;;;9.10;;
21624;SDS011;10974;51.034;3.744;2024-01-11T05:49:43;15.77;;;8.20;;
21624;SDS011;10974;51.034;3.744;2024-01-11T05:52:10;14.43;;;8.50;;
21624;SDS011;10974;51.034;3.744;2024-01-11T05:54:36;13.30;;;8.97;;
21624;SDS011;10974;51.034;3.744;2024-01-11T05:57:02;14.70;;;9.00;;
21624;SDS011;10974;51.034;3.744;2024-01-11T05:59:28;12.93;;;7.77;;
21624;SDS011;10974;51.034;3.744;2024-01-11T06:01:54;15.20;;;9.00;;
21624;SDS011;10974;51.034;3.744;2024-01-11T06:04:25;15.50;;;8.37;;
21624;SDS011;10974;51.034;3.744;2024-01-11T06:06:51;19.60;;;9.10;;
21624;SDS011;10974;51.034;3.744;2024-01-11T06:09:17;14.27;;;8.43;;
21624;SDS011;10974;51.034;3.744;2024-01-11T06:11:43;17.80;;;9.40;;
21624;SDS011;10974;51.034;3.744;2024-01-11T06:14:09;16.13;;;9.23;;
21624;SDS011;10974;51.034;3.744;2024-01-11T06:16:35;15.43;;;8.70;;
21624;SDS011;10974;51.034;3.744;2024-01-11T06:19:01;14.40;;;7.40;;
21624;SDS011;10974;51.034;3.744;2024-01-11T06:21:27;14.53;;;8.30;;
21624;SDS011;10974;51.034;3.744;2024-01-11T06:23:53;15.40;;;7.60;;
21624;SDS011;10974;51.034;3.744;2024-01-11T06:26:19;15.00;;;7.60;;
21624;SDS011;10974;51.034;3.744;2024-01-11T06:28:45;16.70;;;8.17;;
21624;SDS011;10974;51.034;3.744;2024-01-11T06:31:12;12.57;;;7.50;;
21624;SDS011;10974;51.034;3.744;2024-01-11T06:33:38;15.60;;;8.97;;
21624;SDS011;10974;51.034;3.744;2024-01-11T06:36:06;16.27;;;9.20;;
21624;SDS011;10974;51.034;3.744;2024-01-11T06:38:33;15.10;;;9.03;;
21624;SDS011;10974;51.034;3.744;2024-01-11T06:40:59;13.43;;;8.60;;
21624;SDS011;10974;51.034;3.744;2024-01-11T06:43:25;12.77;;;8.13;;
21624;SDS011;10974;51.034;3.744;2024-01-11T06:45:51;14.83;;;8.90;;
21624;SDS011;10974;51.034;3.744;2024-01-11T06:48:18;18.73;;;9.33;;
21624;SDS011;10974;51.034;3.744;2024-01-11T06:50:44;15.83;;;8.77;;
21624;SDS011;10974;51.034;3.744;2024-01-11T06:53:10;17.23;;;8.50;;
21624;SDS011;10974;51.034;3.744;2024-01-11T06:55:36;15.90;;;8.10;;
21624;SDS011;10974;51.034;3.744;2024-01-11T06:58:02;16.60;;;8.00;;
21624;SDS011;10974;51.034;3.744;2024-01-11T07:00:28;14.83;;;9.13;;
21624;SDS011;10974;51.034;3.744;2024-01-11T07:02:54;12.23;;;7.40;;
21624;SDS011;10974;51.034;3.744;2024-01-11T07:05:20;14.87;;;8.20;;
21624;SDS011;10974;51.034;3.744;2024-01-11T07:07:46;13.30;;;8.33;;
21624;SDS011;10974;51.034;3.744;2024-01-11T07:10:13;17.13;;;8.07;;
21624;SDS011;10974;51.034;3.744;2024-01-11T07:12:39;15.20;;;8.90;;
21624;SDS011;10974;51.034;3.744;2024-01-11T07:15:08;16.93;;;9.20;;
21624;SDS011;10974;51.034;3.744;2024-01-11T07:17:34;13.70;;;8.27;;
21624;SDS011;10974;51.034;3.744;2024-01-11T07:20:00;20.00;;;8.83;;
21624;SDS011;10974;51.034;3.744;2024-01-11T07:22:29;14.63;;;8.40;;
21624;SDS011;10974;51.034;3.744;2024-01-11T07:24:56;19.97;;;10.50;;
21624;SDS011;10974;51.034;3.744;2024-01-11T07:27:23;18.03;;;8.90;;
21624;SDS011;10974;51.034;3.744;2024-01-11T07:29:49;15.17;;;8.50;;
21624;SDS011;10974;51.034;3.744;2024-01-11T07:32:15;14.70;;;8.47;;
21624;SDS011;10974;51.034;3.744;2024-01-11T07:34:41;20.40;;;9.20;;
21624;SDS011;10974;51.034;3.744;2024-01-11T07:37:07;16.40;;;8.90;;
21624;SDS011;10974;51.034;3.744;2024-01-11T07:39:33;19.10;;;9.97;;
21624;SDS011;10974;51.034;3.744;2024-01-11T07:42:01;14.07;;;8.60;;
21624;SDS011;10974;51.034;3.744;2024-01-11T07:44:28;13.90;;;8.27;;
21624;SDS011;10974;51.034;3.744;2024-01-11T07:46:54;20.93;;;10.10;;
21624;SDS011;10974;51.034;3.744;2024-01-11T07:49:21;19.03;;;9.13;;
21624;SDS011;10974;51.034;3.744;2024-01-11T07:51:47;17.50;;;9.53;;
21624;SDS011;10974;51.034;3.744;2024-01-11T07:54:13;15.40;;;9.13;;
21624;SDS011;10974;51.034;3.744;2024-01-11T07:56:39;19.50;;;10.20;;
21624;SDS011;10974;51.034;3.744;2024-01-11T07:59:05;13.60;;;8.00;;
21624;SDS011;10974;51.034;3.744;2024-01-11T08:01:31;18.67;;;8.13;;
21624;SDS011;10974;51.034;3.744;2024-01-11T08:04:00;14.60;;;9.30;;
21624;SDS011;10974;51.034;3.744;2024-01-11T08:06:27;16.70;;;9.10;;
21624;SDS011;10974;51.034;3.744;2024-01-11T08:08:54;16.97;;;9.20;;
21624;SDS011;10974;51.034;3.744;2024-01-11T08:11:20;15.10;;;8.07;;
21624;SDS011;10974;51.034;3.744;2024-01-11T08:13:46;16.93;;;9.73;;
21624;SDS011;10974;51.034;3.744;2024-01-11T08:16:18;19.20;;;9.50;;
21624;SDS011;10974;51.034;3.744;2024-01-11T08:18:44;15.87;;;8.63;;
21624;SDS011;10974;51.034;3.744;2024-01-11T08:21:10;18.00;;;9.60;;
21624;SDS011;10974;51.034;3.744;2024-01-11T08:23:37;15.60;;;8.73;;
21624;SDS011;10974;51.034;3.744;2024-01-11T08:26:09;19.93;;;9.87;;
21624;SDS011;10974;51.034;3.744;2024-01-11T08:28:35;16.93;;;10.23;;
21624;SDS011;10974;51.034;3.744;2024-01-11T08:31:01;22.10;;;9.13;;
21624;SDS011;10974;51.034;3.744;2024-01-11T08:33:30;16.23;;;9.43;;
21624;SDS011;10974;51.034;3.744;2024-01-11T08:35:56;17.17;;;9.37;;
21624;SDS011;10974;51.034;3.744;2024-01-11T08:38:22;17.90;;;9.77;;
21624;SDS011;10974;51.034;3.744;2024-01-11T08:40:49;14.97;;;8.87;;
21624;SDS011;10974;51.034;3.744;2024-01-11T08:43:15;15.37;;;8.70;;
21624;SDS011;10974;51.034;3.744;2024-01-11T08:45:42;13.70;;;8.60;;
21624;SDS011;10974;51.034;3.744;2024-01-11T08:48:12;16.33;;;9.27;;
21624;SDS011;10974;51.034;3.744;2024-01-11T08:50:39;17.40;;;9.00;;
21624;SDS011;10974;51.034;3.744;2024-01-11T08:53:06;14.97;;;8.90;;
21624;SDS011;10974;51.034;3.744;2024-01-11T08:55:32;13.93;;;8.23;;
21624;SDS011;10974;51.034;3.744;2024-01-11T08:57:58;14.53;;;8.47;;
21624;SDS011;10974;51.034;3.744;2024-01-11T09:00:24;23.40;;;14.50;;
21624;SDS011;10974;51.034;3.744;2024-01-11T09:02:50;18.03;;;12.40;;
21624;SDS011;10974;51.034;3.744;2024-01-11T09:05:16;19.53;;;11.97;;
21624;SDS011;10974;51.034;3.744;2024-01-11T09:07:42;20.37;;;13.47;;
21624;SDS011;10974;51.034;3.744;2024-01-11T09:10:08;20.50;;;12.77;;
21624;SDS011;10974;51.034;3.744;2024-01-11T09:12:36;23.40;;;13.40;;
21624;SDS011;10974;51.034;3.744;2024-01-11T09:15:02;23.07;;;13.37;;
21624;SDS011;10974;51.034;3.744;2024-01-11T09:17:28;19.17;;;12.57;;
21624;SDS011;10974;51.034;3.744;2024-01-11T09:19:55;23.40;;;13.47;;
21624;SDS011;10974;51.034;3.744;2024-01-11T09:22:21;21.10;;;12.53;;
21624;SDS011;10974;51.034;3.744;2024-01-11T09:24:47;21.17;;;12.80;;
21624;SDS011;10974;51.034;3.744;2024-01-11T09:27:13;23.07;;;13.83;;
21624;SDS011;10974;51.034;3.744;2024-01-11T09:29:45;20.73;;;13.70;;
21624;SDS011;10974;51.034;3.744;2024-01-11T09:32:14;23.10;;;13.87;;
21624;SDS011;10974;51.034;3.744;2024-01-11T09:34:40;21.23;;;12.50;;
21624;SDS011;10974;51.034;3.744;2024-01-11T09:37:06;22.07;;;13.00;;
21624;SDS011;10974;51.034;3.744;2024-01-11T09:39:32;20.73;;;13.80;;
21624;SDS011;10974;51.034;3.744;2024-01-11T09:42:02;20.70;;;12.13;;
21624;SDS011;10974;51.034;3.744;2024-01-11T09:44:29;23.00;;;14.17;;
21624;SDS011;10974;51.034;3.744;2024-01-11T09:46:56;24.67;;;14.40;;
21624;SDS011;10974;51.034;3.744;2024-01-11T09:49:23;22.53;;;14.30;;
21624;SDS011;10974;51.034;3.744;2024-01-11T09:51:49;21.83;;;13.27;;
21624;SDS011;10974;51.034;3.744;2024-01-11T09:54:16;22.17;;;13.60;;
21624;SDS011;10974;51.034;3.744;2024-01-11T09:56:47;25.57;;;14.13;;
21624;SDS011;10974;51.034;3.744;2024-01-11T09:59:18;23.40;;;14.10;;
21624;SDS011;10974;51.034;3.744;2024-01-11T10:01:45;21.00;;;12.70;;
21624;SDS011;10974;51.034;3.744;2024-01-11T10:04:11;25.50;;;13.03;;
21624;SDS011;10974;51.034;3.744;2024-01-11T10:06:38;26.40;;;15.00;;
21624;SDS011;10974;51.034;3.744;2024-01-11T10:09:04;23.53;;;14.50;;
21624;SDS011;10974;51.034;3.744;2024-01-11T10:11:30;23.13;;;13.70;;
21624;SDS011;10974;51.034;3.744;2024-01-11T10:13:57;24.17;;;14.20;;
21624;SDS011;10974;51.034;3.744;2024-01-11T10:16:24;24.97;;;12.80;;
21624;SDS011;10974;51.034;3.744;2024-01-11T10:18:54;21.43;;;13.60;;
21624;SDS011;10974;51.034;3.744;2024-01-11T10:21:21;22.33;;;14.37;;
21624;SDS011;10974;51.034;3.744;2024-01-11T10:23:48;24.60;;;14.97;;
21624;SDS011;10974;51.034;3.744;2024-01-11T10:26:17;25.47;;;13.80;;
21624;SDS011;10974;51.034;3.744;2024-01-11T10:28:46;23.07;;;15.17;;
21624;SDS011;10974;51.034;3.744;2024-01-11T10:31:13;23.17;;;13.57;;
21624;SDS011;10974;51.034;3.744;2024-01-11T10:33:43;23.90;;;14.70;;
21624;SDS011;10974;51.034;3.744;2024-01-11T10:36:09;23.10;;;14.17;;
21624;SDS011;10974;51.034;3.744;2024-01-11T10:38:38;22.87;;;14.53;;
21624;SDS011;10974;51.034;3.744;2024-01-11T10:41:05;23.60;;;14.77;;
21624;SDS011;10974;51.034;3.744;2024-01-11T10:43:32;24.10;;;15.10;;
21624;SDS011;10974;51.034;3.744;2024-01-11T10:45:59;26.40;;;16.10;;
21624;SDS011;10974;51.034;3.744;2024-01-11T10:48:30;22.97;;;14.60;;
21624;SDS011;10974;51.034;3.744;2024-01-11T10:51:00;26.13;;;15.70;;
21624;SDS011;10974;51.034;3.744;2024-01-11T10:53:46;25.30;;;14.27;;
21624;SDS011;10974;51.034;3.744;2024-01-11T10:56:13;26.07;;;14.60;;
21624;SDS011;10974;51.034;3.744;2024-01-11T10:58:42;21.83;;;14.20;;
21624;SDS011;10974;51.034;3.744;2024-01-11T11:01:10;23.03;;;14.23;;
21624;SDS011;10974;51.034;3.744;2024-01-11T11:03:36;23.80;;;14.80;;
21624;SDS011;10974;51.034;3.744;2024-01-11T11:06:04;25.57;;;16.20;;
21624;SDS011;10974;51.034;3.744;2024-01-11T11:08:34;23.20;;;15.17;;
21624;SDS011;10974;51.034;3.744;2024-01-11T11:11:02;27.27;;;14.10;;
21624;SDS011;10974;51.034;3.744;2024-01-11T11:13:31;24.80;;;14.57;;
21624;SDS011;10974;51.034;3.744;2024-01-11T11:15:58;25.43;;;14.90;;
21624;SDS011;10974;51.034;3.744;2024-01-11T11:18:24;24.63;;;15.50;;
21624;SDS011;10974;51.034;3.744;2024-01-11T11:20:50;27.60;;;14.53;;
21624;SDS011;10974;51.034;3.744;2024-01-11T11:23:19;23.00;;;14.70;;
21624;SDS011;10974;51.034;3.744;2024-01-11T11:25:46;25.30;;;14.40;;
21624;SDS011;10974;51.034;3.744;2024-01-11T11:28:12;26.03;;;15.60;;
21624;SDS011;10974;51.034;3.744;2024-01-11T11:30:42;20.83;;;13.90;;
21624;SDS011;10974;51.034;3.744;2024-01-11T11:33:18;20.87;;;12.73;;
21624;SDS011;10974;51.034;3.744;2024-01-11T11:35:48;22.33;;;14.37;;
21624;SDS011;10974;51.034;3.744;2024-01-11T11:38:21;21.60;;;13.50;;
21624;SDS011;10974;51.034;3.744;2024-01-11T11:40:48;25.90;;;14.87;;
21624;SDS011;10974;51.034;3.744;2024-01-11T11:43:17;20.50;;;13.20;;
21624;SDS011;10974;51.034;3.744;2024-01-11T11:45:44;24.20;;;14.37;;
21624;SDS011;10974;51.034;3.744;2024-01-11T11:51:10;23.50;;;14.10;;
21624;SDS011;10974;51.034;3.744;2024-01-11T11:53:37;19.53;;;12.30;;
21624;SDS011;10974;51.034;3.744;2024-01-11T11:56:03;18.70;;;12.57;;
21624;SDS011;10974;51.034;3.744;2024-01-11T11:58:30;21.57;;;13.20;;
21624;SDS011;10974;51.034;3.744;2024-01-11T12:01:00;19.27;;;12.10;;
21624;SDS011;10974;51.034;3.744;2024-01-11T12:03:30;20.07;;;12.17;;
21624;SDS011;10974;51.034;3.744;2024-01-11T12:06:02;17.70;;;11.20;;
21624;SDS011;10974;51.034;3.744;2024-01-11T12:08:28;22.03;;;13.30;;
21624;SDS011;10974;51.034;3.744;2024-01-11T12:10:54;19.00;;;12.90;;
21624;SDS011;10974;51.034;3.744;2024-01-11T12:13:21;18.93;;;11.63;;
21624;SDS011;10974;51.034;3.744;2024-01-11T12:15:47;18.77;;;12.40;;
21624;SDS011;10974;51.034;3.744;2024-01-11T12:18:13;21.20;;;12.47;;
21624;SDS011;10974;51.034;3.744;2024-01-11T12:20:39;18.03;;;12.23;;
21624;SDS011;10974;51.034;3.744;2024-01-11T12:23:05;20.00;;;12.40;;
21624;SDS011;10974;51.034;3.744;2024-01-11T12:25:31;25.30;;;13.27;;
21624;SDS011;10974;51.034;3.744;2024-01-11T12:27:57;22.90;;;13.50;;
21624;SDS011;10974;51.034;3.744;2024-01-11T12:30:25;20.50;;;11.90;;
21624;SDS011;10974;51.034;3.744;2024-01-11T12:32:51;18.50;;;11.33;;
21624;SDS011;10974;51.034;3.744;2024-01-11T12:35:18;17.10;;;11.00;;
21624;SDS011;10974;51.034;3.744;2024-01-11T12:37:55;18.07;;;12.07;;
21624;SDS011;10974;51.034;3.744;2024-01-11T12:40:21;19.67;;;12.43;;
21624;SDS011;10974;51.034;3.744;2024-01-11T12:42:48;25.87;;;13.10;;
21624;SDS011;10974;51.034;3.744;2024-01-11T12:45:15;21.13;;;13.07;;
21624;SDS011;10974;51.034;3.744;2024-01-11T12:47:41;20.40;;;12.40;;
21624;SDS011;10974;51.034;3.744;2024-01-11T12:50:07;29.13;;;14.23;;
21624;SDS011;10974;51.034;3.744;2024-01-11T12:52:33;20.00;;;12.67;;
21624;SDS011;10974;51.034;3.744;2024-01-11T12:54:59;19.10;;;12.13;;
21624;SDS011;10974;51.034;3.744;2024-01-11T12:57:25;20.60;;;12.80;;
21624;SDS011;10974;51.034;3.744;2024-01-11T12:59:52;20.03;;;12.03;;
21624;SDS011;10974;51.034;3.744;2024-01-11T13:02:18;18.47;;;12.27;;
21624;SDS011;10974;51.034;3.744;2024-01-11T13:04:45;19.77;;;12.97;;
21624;SDS011;10974;51.034;3.744;2024-01-11T13:07:11;22.20;;;12.90;;
21624;SDS011;10974;51.034;3.744;2024-01-11T13:09:38;20.77;;;13.07;;
21624;SDS011;10974;51.034;3.744;2024-01-11T13:12:05;19.67;;;11.77;;
21624;SDS011;10974;51.034;3.744;2024-01-11T13:14:31;23.13;;;13.80;;
21624;SDS011;10974;51.034;3.744;2024-01-11T13:16:57;18.33;;;12.43;;
21624;SDS011;10974;51.034;3.744;2024-01-11T13:19:23;21.17;;;13.40;;
21624;SDS011;10974;51.034;3.744;2024-01-11T13:21:49;20.60;;;14.00;;
21624;SDS011;10974;51.034;3.744;2024-01-11T13:24:17;19.40;;;12.70;;
21624;SDS011;10974;51.034;3.744;2024-01-11T13:26:43;17.47;;;12.10;;
21624;SDS011;10974;51.034;3.744;2024-01-11T13:29:10;17.50;;;11.80;;
21624;SDS011;10974;51.034;3.744;2024-01-11T13:31:36;19.97;;;12.90;;
21624;SDS011;10974;51.034;3.744;2024-01-11T13:34:03;18.87;;;11.40;;
21624;SDS011;10974;51.034;3.744;2024-01-11T13:36:29;16.93;;;12.03;;
21624;SDS011;10974;51.034;3.744;2024-01-11T13:38:55;18.77;;;12.57;;
21624;SDS011;10974;51.034;3.744;2024-01-11T13:41:21;16.47;;;11.37;;
21624;SDS011;10974;51.034;3.744;2024-01-11T13:43:47;17.10;;;11.40;;
21624;SDS011;10974;51.034;3.744;2024-01-11T13:46:14;18.17;;;11.73;;
21624;SDS011;10974;51.034;3.744;2024-01-11T13:48:44;16.70;;;10.90;;
21624;SDS011;10974;51.034;3.744;2024-01-11T13:51:11;16.30;;;11.00;;
21624;SDS011;10974;51.034;3.744;2024-01-11T13:53:39;15.20;;;10.60;;
21624;SDS011;10974;51.034;3.744;2024-01-11T13:56:05;18.33;;;11.40;;
21624;SDS011;10974;51.034;3.744;2024-01-11T13:58:31;17.30;;;11.00;;
21624;SDS011;10974;51.034;3.744;2024-01-11T14:00:57;19.83;;;11.73;;
21624;SDS011;10974;51.034;3.744;2024-01-11T14:03:23;17.37;;;10.57;;
21624;SDS011;10974;51.034;3.744;2024-01-11T14:05:50;17.00;;;12.20;;
21624;SDS011;10974;51.034;3.744;2024-01-11T14:08:16;19.33;;;12.00;;
21624;SDS011;10974;51.034;3.744;2024-01-11T14:10:42;21.20;;;12.30;;
21624;SDS011;10974;51.034;3.744;2024-01-11T14:13:08;20.50;;;12.60;;
21624;SDS011;10974;51.034;3.744;2024-01-11T14:15:34;19.30;;;13.20;;
21624;SDS011;10974;51.034;3.744;2024-01-11T14:18:01;24.73;;;14.23;;
21624;SDS011;10974;51.034;3.744;2024-01-11T14:20:28;24.27;;;14.20;;
21624;SDS011;10974;51.034;3.744;2024-01-11T14:22:55;18.80;;;13.47;;
21624;SDS011;10974;51.034;3.744;2024-01-11T14:25:23;22.27;;;14.00;;
21624;SDS011;10974;51.034;3.744;2024-01-11T14:27:54;21.90;;;14.33;;